Etusivu
METAR-TAF:

METAR-TAF

Lentoasemat :

Honningsvåg, Norja

Leveyspiiri: 71-01N, Pituuspiiri: 025-59E, korkeus merenpinnasta: 1 m

Tämänhetkinen sää

Tämä raportti tehtiin 29 minuuttia sitten, kello 13.50 UTC
Tuuli 14 kn luoteesta
Lämpötila -3°C
Kosteus 63%
Ilmanpaine 1014 hPa
Näkyvyys 10 km tai enemmän
Hajonneita pilviä 3300 ft:n korkeudessa
sadekuuroja näköpiirissä

METAR: ENHV 301350Z 32014KT 9999 VCSH BKN033 M03/M09 Q1014 6

Aika: 16:19 (14:19 UTC)


TAF: puuttuu

Säähavainnot ja -ennusteet yli 4000 lentoasemalta (METAR- ja TAF-raportit).

Käytössä olevat sääasemat on merkitty karttaan keltaisilla ja punaisilla pisteillä.

Aseta hiiri pisteen päälle nähdäksesi sääaseman nimen.

Klikkaa sitten nähdäksesi säähavainnot ja -ennusteet.

Kartan vaihtaminen: klikkaa mustalla rastilla varustettuja vihreitä pisteitä, niin voit zoomata sisään; viivalla varustettua vihreää pistettä, niin voit zoomata ulos tai vihreitä nuolia, niin pääset viereisille kartoille.


METAR-TAF: